createdAt,value
2022-09-18T00:01:10.824Z,-23432.00
2022-09-18T00:03:13.512Z,-23432.63
2022-09-18T00:05:16.312Z,-23430.72
2022-09-18T00:07:20.729Z,-23433.75
2022-09-18T00:09:23.418Z,-23432.16
2022-09-18T00:11:29.142Z,-23430.25
2022-09-18T00:13:32.135Z,-23429.78
2022-09-18T00:15:34.708Z,-23432.94
2022-09-18T00:17:38.390Z,-23432.94
2022-09-18T00:19:40.964Z,-23433.09
2022-09-18T00:21:46.009Z,-23431.19
2022-09-18T00:23:49.971Z,-23430.25
2022-09-18T00:25:52.580Z,-23434.53
2022-09-18T00:27:55.186Z,-23434.69
2022-09-18T00:29:57.759Z,-23432.47
2022-09-18T00:32:00.523Z,-23431.03
2022-09-18T00:34:07.610Z,-23432.31
2022-09-18T00:36:12.315Z,-23430.56
2022-09-18T00:38:14.958Z,-23432.00
2022-09-18T00:40:19.168Z,-23429.28
2022-09-18T00:42:21.825Z,-23431.03
2022-09-18T00:44:40.821Z,-23432.31
2022-09-18T00:46:45.604Z,-23429.63
2022-09-18T00:48:54.047Z,-23428.66
2022-09-18T00:50:57.157Z,-23432.00
2022-09-18T00:53:02.716Z,-23433.91
2022-09-18T00:55:08.645Z,-23431.34
2022-09-18T00:57:15.150Z,-23432.63
2022-09-18T00:59:23.164Z,-23429.44
2022-09-18T01:01:25.815Z,-23433.41
2022-09-18T01:03:29.975Z,-23431.53
2022-09-18T01:05:46.448Z,-23432.63
2022-09-18T01:07:59.079Z,-23432.00
2022-09-18T01:10:13.174Z,-23432.63
2022-09-18T01:12:28.719Z,-23432.16
2022-09-18T01:14:36.017Z,-23431.69
2022-09-18T01:16:46.893Z,-23431.69
2022-09-18T01:18:57.940Z,-23431.69
2022-09-18T01:21:10.416Z,-23432.00
2022-09-18T01:23:35.046Z,-23432.47
2022-09-18T01:25:40.403Z,-23432.00
2022-09-18T01:27:55.481Z,-23432.31
2022-09-18T01:30:04.049Z,-23432.31
2022-09-18T01:32:14.008Z,-23437.22
2022-09-18T01:34:22.620Z,-23436.13
2022-09-18T01:36:28.116Z,-23437.72
2022-09-18T01:38:35.959Z,-23437.72
2022-09-18T01:40:42.957Z,-23437.88
2022-09-18T01:42:49.293Z,-23434.84
2022-09-18T01:44:54.628Z,-23438.66
2022-09-18T01:47:00.471Z,-23435.34
2022-09-18T01:49:08.017Z,-23437.72
2022-09-18T01:51:14.222Z,-23436.44
2022-09-18T01:53:20.210Z,-23438.50
2022-09-18T01:55:27.129Z,-23435.34
2022-09-18T01:57:35.643Z,-23437.06
2022-09-18T01:59:43.398Z,-23436.44
2022-09-18T02:01:48.998Z,-23435.97
2022-09-18T02:03:56.616Z,-23434.53
2022-09-18T02:06:07.669Z,-23436.44
2022-09-18T02:08:14.424Z,-23438.03
2022-09-18T02:10:17.206Z,-23437.22
2022-09-18T02:12:24.000Z,-23435.47
2022-09-18T02:14:29.475Z,-23439.94
2022-09-18T02:16:37.569Z,-23436.44
2022-09-18T02:18:47.171Z,-23434.06
2022-09-18T02:20:51.014Z,-23434.53
2022-09-18T02:22:57.792Z,-23433.28
2022-09-18T02:25:02.952Z,-23435.34
2022-09-18T02:27:07.780Z,-23436.13
2022-09-18T02:29:12.556Z,-23440.09
2022-09-18T02:31:16.710Z,-23433.28
2022-09-18T02:33:30.686Z,-23432.63
2022-09-18T02:35:45.842Z,-23435.66
2022-09-18T02:37:57.854Z,-23431.69
2022-09-18T02:40:11.012Z,-23434.22
2022-09-18T02:42:28.015Z,-23434.84
2022-09-18T02:44:38.288Z,-23435.97
2022-09-18T02:46:48.846Z,-23434.22
2022-09-18T02:49:00.983Z,-23434.06
2022-09-18T02:51:11.564Z,-23435.16
2022-09-18T02:53:19.232Z,-23433.59
2022-09-18T02:55:26.922Z,-23435.16
2022-09-18T02:57:35.428Z,-23434.53
2022-09-18T02:59:40.891Z,-23432.47
2022-09-18T03:01:45.484Z,-23433.59
2022-09-18T03:03:48.364Z,-23433.28
2022-09-18T03:05:50.956Z,-23433.75
2022-09-18T03:07:54.959Z,-23434.53
2022-09-18T03:09:57.566Z,-23435.16
2022-09-18T03:12:00.112Z,-23433.91
2022-09-18T03:14:02.707Z,-23433.28
2022-09-18T03:16:05.340Z,-23436.13
2022-09-18T03:18:08.091Z,-23433.91
2022-09-18T03:20:10.840Z,-23436.28
2022-09-18T03:22:13.503Z,-23435.97
2022-09-18T03:24:17.490Z,-23435.00
2022-09-18T03:26:21.396Z,-23429.63
2022-09-18T03:28:23.992Z,-23429.78
2022-09-18T03:30:26.622Z,-23430.09
2022-09-18T03:32:29.208Z,-23428.81
2022-09-18T03:34:31.778Z,-23430.41
2022-09-18T03:36:34.393Z,-23430.56
2022-09-18T03:38:38.721Z,-23430.72
2022-09-18T03:40:47.780Z,-23433.91
2022-09-18T03:42:50.772Z,-23433.28
2022-09-18T03:44:53.375Z,-23433.75
2022-09-18T03:46:55.986Z,-23430.41
2022-09-18T03:48:58.847Z,-23428.34
2022-09-18T03:51:01.453Z,-23430.56
2022-09-18T03:53:04.059Z,-23431.69
2022-09-18T03:55:07.412Z,-23435.00
2022-09-18T03:57:11.342Z,-23435.81
2022-09-18T03:59:13.912Z,-23433.09
2022-09-18T04:01:16.541Z,-23432.00
2022-09-18T04:03:19.192Z,-23436.13
2022-09-18T04:05:21.938Z,-23432.94
2022-09-18T04:07:24.853Z,-23433.41
2022-09-18T04:09:27.424Z,-23432.16
2022-09-18T04:11:30.010Z,-23435.81
2022-09-18T04:13:34.491Z,-23436.59
2022-09-18T04:15:37.094Z,-23435.81
2022-09-18T04:17:39.713Z,-23432.94
2022-09-18T04:19:42.456Z,-23432.78
2022-09-18T04:21:45.008Z,-23428.81
2022-09-18T04:23:47.601Z,-23431.69
2022-09-18T04:25:50.152Z,-23434.53
2022-09-18T04:27:52.712Z,-23434.53
2022-09-18T04:29:56.649Z,-23433.91
2022-09-18T04:31:59.413Z,-23429.63
2022-09-18T04:34:02.134Z,-23433.59
2022-09-18T04:36:04.981Z,-23430.88
2022-09-18T04:38:08.193Z,-23432.00
2022-09-18T04:40:12.022Z,-23431.69
2022-09-18T04:42:14.696Z,-23432.00
2022-09-18T04:44:17.322Z,-23436.13
2022-09-18T04:46:21.339Z,-23430.25
2022-09-18T04:48:24.559Z,-23431.69
2022-09-18T04:50:27.310Z,-23432.00
2022-09-18T04:52:30.071Z,-23432.31
2022-09-18T04:54:32.742Z,-23435.16
2022-09-18T04:56:35.351Z,-23433.91
2022-09-18T04:58:38.324Z,-23432.00
2022-09-18T05:00:41.487Z,-23432.00
2022-09-18T05:02:45.473Z,-23433.28
2022-09-18T05:04:48.055Z,-23435.34
2022-09-18T05:06:50.601Z,-23433.75
2022-09-18T05:08:53.174Z,-23434.53
2022-09-18T05:10:55.862Z,-23435.81
2022-09-18T05:12:58.430Z,-23435.16
2022-09-18T05:15:01.348Z,-23439.94
2022-09-18T05:17:03.940Z,-23437.72
2022-09-18T05:19:08.239Z,-23435.16
2022-09-18T05:21:10.859Z,-23435.47
2022-09-18T05:23:13.461Z,-23434.84
2022-09-18T05:25:16.147Z,-23436.44
2022-09-18T05:27:19.944Z,-23438.97
2022-09-18T05:29:24.935Z,-23436.13
2022-09-18T05:31:27.539Z,-23437.41
2022-09-18T05:33:30.338Z,-23434.84
2022-09-18T05:35:36.199Z,-23437.22
2022-09-18T05:37:38.811Z,-23440.88
2022-09-18T05:39:42.158Z,-23437.53
2022-09-18T05:41:44.763Z,-23436.44
2022-09-18T05:43:47.361Z,-23437.41
2022-09-18T05:45:49.958Z,-23437.41
2022-09-18T05:47:57.125Z,-23439.13
2022-09-18T05:49:59.681Z,-23435.81
2022-09-18T05:52:03.895Z,-23437.72
2022-09-18T05:54:06.666Z,-23438.66
2022-09-18T05:56:09.271Z,-23440.09
2022-09-18T05:58:14.205Z,-23439.47
2022-09-18T06:00:17.075Z,-23438.81
2022-09-18T06:02:19.954Z,-23438.03
2022-09-18T06:04:22.681Z,-23440.56
2022-09-18T06:06:25.253Z,-23439.28
2022-09-18T06:08:29.184Z,-23443.59
2022-09-18T06:10:33.419Z,-23439.59
2022-09-18T06:12:35.977Z,-23442.94
2022-09-18T06:14:38.597Z,-23439.28
2022-09-18T06:16:42.499Z,-23444.22
2022-09-18T06:18:45.360Z,-23438.97
2022-09-18T06:20:53.990Z,-23442.31
2022-09-18T06:23:00.048Z,-23435.66
2022-09-18T06:25:04.743Z,-23435.34
2022-09-18T06:27:07.527Z,-23436.44
2022-09-18T06:29:10.132Z,-23440.56
2022-09-18T06:31:12.785Z,-23441.19
2022-09-18T06:33:15.423Z,-23437.53
2022-09-18T06:35:18.295Z,-23439.94
2022-09-18T06:37:20.916Z,-23439.28
2022-09-18T06:39:23.553Z,-23439.94
2022-09-18T06:41:27.528Z,-23437.72
2022-09-18T06:43:30.122Z,-23441.53
2022-09-18T06:45:32.943Z,-23444.22
2022-09-18T06:47:35.524Z,-23443.59
2022-09-18T06:49:38.218Z,-23446.28
2022-09-18T06:51:41.436Z,-23445.97
2022-09-18T06:53:44.054Z,-23445.00
2022-09-18T06:55:48.751Z,-23446.44
2022-09-18T06:57:56.630Z,-23445.47
2022-09-18T06:59:59.222Z,-23448.19
2022-09-18T07:02:01.969Z,-23454.53
2022-09-18T07:04:04.862Z,-23450.09
2022-09-18T07:06:10.253Z,-23454.84
2022-09-18T07:08:13.355Z,-23456.28
2022-09-18T07:10:16.159Z,-23455.97
2022-09-18T07:12:19.050Z,-23459.44
2022-09-18T07:14:23.027Z,-23457.06
2022-09-18T07:16:25.740Z,-23462.13
2022-09-18T07:18:28.415Z,-23453.41
2022-09-18T07:20:31.073Z,-23453.56
2022-09-18T07:22:34.246Z,-23457.53
2022-09-18T07:24:37.109Z,-23453.56
2022-09-18T07:26:39.688Z,-23455.78
2022-09-18T07:28:42.292Z,-23453.91
2022-09-18T07:30:46.584Z,-23457.84
2022-09-18T07:32:49.533Z,-23455.78
2022-09-18T07:34:52.266Z,-23456.59
2022-09-18T07:36:54.862Z,-23460.88
2022-09-18T07:38:57.956Z,-23459.75
2022-09-18T07:41:02.612Z,-23460.25
2022-09-18T07:43:07.734Z,-23459.44
2022-09-18T07:45:10.383Z,-23461.50
2022-09-18T07:47:14.569Z,-23461.34
2022-09-18T07:49:17.298Z,-23460.09
2022-09-18T07:51:23.046Z,-23458.66
2022-09-18T07:53:29.405Z,-23458.50
2022-09-18T07:55:35.135Z,-23464.53
2022-09-18T07:57:37.745Z,-23466.56
2022-09-18T07:59:40.403Z,-23463.09
2022-09-18T08:01:43.166Z,-23464.03
2022-09-18T08:03:47.221Z,-23465.31
2022-09-18T08:05:49.815Z,-23470.06
2022-09-18T08:07:52.433Z,-23466.09
2022-09-18T08:09:55.112Z,-23468.50
2022-09-18T08:11:57.863Z,-23467.22
2022-09-18T08:14:00.486Z,-23465.16
2022-09-18T08:16:04.816Z,-23470.53
2022-09-18T08:18:08.400Z,-23468.63
2022-09-18T08:20:12.582Z,-23471.97
2022-09-18T08:22:15.179Z,-23470.06
2022-09-18T08:24:18.032Z,-23471.03
2022-09-18T08:26:22.452Z,-23466.09
2022-09-18T08:28:25.207Z,-23469.13
2022-09-18T08:30:28.210Z,-23468.50
2022-09-18T08:32:30.976Z,-23470.38
2022-09-18T08:34:33.645Z,-23472.44
2022-09-18T08:36:37.634Z,-23470.69
2022-09-18T08:38:40.305Z,-23472.75
2022-09-18T08:41:05.257Z,-23475.63
2022-09-18T08:43:16.125Z,-23469.44
2022-09-18T08:45:35.986Z,-23473.88
2022-09-18T08:47:44.300Z,-23473.56
2022-09-18T08:49:50.435Z,-23475.47
2022-09-18T08:51:59.782Z,-23477.03
2022-09-18T08:54:18.894Z,-23478.78
2022-09-18T08:56:24.085Z,-23483.53
2022-09-18T08:58:31.897Z,-23476.41
2022-09-18T09:00:39.100Z,-23480.06
2022-09-18T09:02:43.873Z,-23484.19
2022-09-18T09:04:46.731Z,-23487.50
2022-09-18T09:07:04.519Z,-23485.59
2022-09-18T09:09:29.863Z,-23491.31
2022-09-18T09:11:41.691Z,-23492.25
2022-09-18T09:14:00.601Z,-23490.38
2022-09-18T09:16:11.918Z,-23478.00
2022-09-18T09:18:17.970Z,-23481.16
2022-09-18T09:20:25.486Z,-23485.13
2022-09-18T09:22:40.669Z,-23485.91
2022-09-18T09:24:56.444Z,-23488.78
2022-09-18T09:27:00.138Z,-23489.56
2022-09-18T09:29:07.049Z,-23490.03
2022-09-18T09:31:11.672Z,-23496.22
2022-09-18T09:33:21.749Z,-23496.22
2022-09-18T09:35:29.580Z,-23489.09
2022-09-18T09:37:41.454Z,-23492.44
2022-09-18T09:39:49.106Z,-23496.88
2022-09-18T09:41:58.795Z,-23498.44
2022-09-18T09:44:13.416Z,-23495.59
2022-09-18T09:46:25.120Z,-23492.91
2022-09-18T09:48:35.201Z,-23501.63
2022-09-18T09:50:51.295Z,-23503.03
2022-09-18T09:53:00.129Z,-23504.63
2022-09-18T09:55:19.130Z,-23501.28
2022-09-18T09:57:27.356Z,-23516.97
2022-09-18T09:59:36.842Z,-23522.84
2022-09-18T10:01:43.381Z,-23522.69
2022-09-18T10:03:59.140Z,-23525.69
2022-09-18T10:06:12.779Z,-23544.06
2022-09-18T10:08:23.140Z,-23567.94
2022-09-18T10:10:35.596Z,-23558.59
2022-09-18T10:12:49.043Z,-23561.94
2022-09-18T10:14:54.119Z,-23570.63
2022-09-18T10:16:58.819Z,-23593.53
2022-09-18T10:19:02.149Z,-23572.69
2022-09-18T10:21:10.172Z,-23581.69
2022-09-18T10:23:21.032Z,-23558.91
2022-09-18T10:25:31.335Z,-23566.66
2022-09-18T10:27:33.957Z,-23561.59
2022-09-18T10:29:36.629Z,-23559.56
2022-09-18T10:31:50.073Z,-23577.41
2022-09-18T10:33:53.606Z,-23568.88
2022-09-18T10:36:01.470Z,-23575.84
2022-09-18T10:38:04.548Z,-23573.31
2022-09-18T10:40:30.430Z,-23591.66
2022-09-18T10:42:35.241Z,-23573.94
2022-09-18T10:44:40.885Z,-23567.47
2022-09-18T10:46:52.914Z,-23579.00
2022-09-18T10:48:56.217Z,-23574.25
2022-09-18T10:51:01.439Z,-23573.94
2022-09-18T10:53:25.651Z,-23569.84
2022-09-18T10:55:31.630Z,-23576.78
2022-09-18T10:57:35.756Z,-23577.72
2022-09-18T10:59:38.298Z,-23594.50
2022-09-18T11:01:44.675Z,-23594.50
2022-09-18T11:03:49.674Z,-23600.50
2022-09-18T11:05:56.592Z,-23593.84
2022-09-18T11:08:02.823Z,-23595.59
2022-09-18T11:10:09.329Z,-23590.06
2022-09-18T11:12:20.546Z,-23596.38
2022-09-18T11:14:25.895Z,-23604.75
2022-09-18T11:16:30.923Z,-23586.44
2022-09-18T11:18:34.205Z,-23591.97
2022-09-18T11:20:44.129Z,-23593.06
2022-09-18T11:22:47.463Z,-23586.75
2022-09-18T11:24:50.140Z,-23588.63
2022-09-18T11:26:54.581Z,-23584.22
2022-09-18T11:29:03.494Z,-23593.84
2022-09-18T11:31:12.598Z,-23592.75
2022-09-18T11:33:25.698Z,-23602.22
2022-09-18T11:35:30.787Z,-23605.84
2022-09-18T11:37:36.982Z,-23618.97
2022-09-18T11:39:45.008Z,-23614.22
2022-09-18T11:41:50.501Z,-23618.97
2022-09-18T11:44:04.441Z,-23606.19
2022-09-18T11:46:18.867Z,-23607.44
2022-09-18T11:48:28.471Z,-23614.06
2022-09-18T11:50:35.187Z,-23615.97
2022-09-18T11:52:41.147Z,-23602.06
2022-09-18T11:54:49.513Z,-23604.44
2022-09-18T11:56:56.373Z,-23609.81
2022-09-18T11:59:05.076Z,-23620.25
2022-09-18T12:01:18.410Z,-23623.22
2022-09-18T12:03:28.745Z,-23612.50
2022-09-18T12:05:37.466Z,-23617.38
2022-09-18T12:07:44.376Z,-23617.53
2022-09-18T12:09:53.843Z,-23609.03
2022-09-18T12:12:03.194Z,-23601.75
2022-09-18T12:14:15.894Z,-23606.03
2022-09-18T12:16:24.156Z,-23608.69
2022-09-18T12:18:31.530Z,-23596.69
2022-09-18T12:20:40.168Z,-23593.53
2022-09-18T12:22:48.227Z,-23600.50
2022-09-18T12:30:37.626Z,-23605.22
2022-09-18T12:33:25.116Z,-23619.13
2022-09-18T12:35:40.096Z,-23619.44
2022-09-18T12:37:57.284Z,-23616.59
2022-09-18T12:40:27.142Z,-23596.38
2022-09-18T12:42:39.680Z,-23608.06
2022-09-18T12:44:57.020Z,-23605.53
2022-09-18T12:47:31.041Z,-23611.53
2022-09-18T12:49:48.719Z,-23627.50
2022-09-18T12:51:57.468Z,-23625.28
2022-09-18T12:54:16.864Z,-23632.38
2022-09-18T12:56:37.813Z,-23635.22
2022-09-18T12:59:01.418Z,-23624.66
2022-09-18T13:01:13.801Z,-23624.97
2022-09-18T13:03:22.988Z,-23628.91
2022-09-18T13:05:30.082Z,-23632.38
2022-09-18T13:07:36.873Z,-23622.59
2022-09-18T13:09:45.406Z,-23621.81
2022-09-18T13:11:51.765Z,-23617.53
2022-09-18T13:14:00.506Z,-23616.28
2022-09-18T13:16:10.196Z,-23609.34
2022-09-18T13:18:24.892Z,-23620.09
2022-09-18T13:20:32.451Z,-23614.38
2022-09-18T13:22:37.945Z,-23619.44
2022-09-18T13:24:42.229Z,-23628.44
2022-09-18T13:26:47.588Z,-23622.91
2022-09-18T13:28:50.669Z,-23626.88
2022-09-18T13:31:23.361Z,-23618.81
2022-09-18T13:33:28.057Z,-23618.97
2022-09-18T13:35:32.621Z,-23616.44
2022-09-18T13:37:35.294Z,-23612.50
2022-09-18T13:40:00.418Z,-23615.19
2022-09-18T13:42:02.983Z,-23603.19
2022-09-18T13:44:06.054Z,-23606.34
2022-09-18T13:46:10.987Z,-23612.19
2022-09-18T13:48:22.865Z,-23605.84
2022-09-18T13:50:27.916Z,-23607.28
2022-09-18T13:52:42.993Z,-23608.06
2022-09-18T13:55:00.967Z,-23606.03
2022-09-18T13:57:18.273Z,-23602.69
2022-09-18T13:59:23.591Z,-23596.22
2022-09-18T14:02:04.836Z,-23587.53
2022-09-18T14:04:40.670Z,-23583.44
2022-09-18T14:06:47.551Z,-23584.06
2022-09-18T14:08:50.291Z,-23578.38
2022-09-18T14:11:19.542Z,-23576.94
2022-09-18T14:13:32.831Z,-23576.63
2022-09-18T14:15:35.613Z,-23582.16
2022-09-18T14:17:38.707Z,-23579.16
2022-09-18T14:19:44.882Z,-23581.84
2022-09-18T14:21:49.002Z,-23588.50
2022-09-18T14:24:10.772Z,-23599.22
2022-09-18T14:26:47.230Z,-23598.13
2022-09-18T14:28:50.031Z,-23598.28
2022-09-18T14:31:12.867Z,-23603.81
2022-09-18T14:33:20.740Z,-23601.13
2022-09-18T14:35:31.239Z,-23599.06
2022-09-18T14:37:37.196Z,-23589.91
2022-09-18T14:39:39.853Z,-23591.34
2022-09-18T14:41:43.149Z,-23586.59
2022-09-18T14:43:50.429Z,-23583.75
2022-09-18T14:45:54.677Z,-23585.31
2022-09-18T14:47:58.468Z,-23591.66
2022-09-18T14:50:01.146Z,-23588.50
2022-09-18T14:52:05.238Z,-23590.38
2022-09-18T14:54:21.557Z,-23586.75
2022-09-18T14:56:28.636Z,-23588.81
2022-09-18T14:58:36.021Z,-23587.06
2022-09-18T15:00:39.387Z,-23590.06
2022-09-18T15:02:42.213Z,-23584.06
2022-09-18T15:04:45.128Z,-23585.97
2022-09-18T15:06:53.402Z,-23582.97
2022-09-18T15:08:57.997Z,-23581.53
2022-09-18T15:11:02.074Z,-23581.22
2022-09-18T15:13:08.334Z,-23582.97
2022-09-18T15:15:27.499Z,-23580.59
2022-09-18T15:17:32.391Z,-23581.84
2022-09-18T15:19:35.083Z,-23577.41
2022-09-18T15:21:37.828Z,-23578.84
2022-09-18T15:23:40.465Z,-23582.00
2022-09-18T15:25:46.154Z,-23578.53
2022-09-18T15:27:51.192Z,-23580.91
2022-09-18T15:30:00.018Z,-23582.63
2022-09-18T15:32:05.003Z,-23574.88
2022-09-18T15:34:13.143Z,-23573.63
2022-09-18T15:36:24.471Z,-23572.03
2022-09-18T15:38:32.863Z,-23572.69
2022-09-18T15:40:38.380Z,-23570.94
2022-09-18T15:42:51.873Z,-23571.56
2022-09-18T15:45:19.490Z,-23572.34
2022-09-18T15:47:32.629Z,-23568.41
2022-09-18T15:49:35.744Z,-23567.94
2022-09-18T15:51:38.584Z,-23565.72
2022-09-18T15:53:41.385Z,-23565.41
2022-09-18T15:55:54.399Z,-23566.66
2022-09-18T15:57:59.655Z,-23564.47
2022-09-18T16:00:04.294Z,-23562.56
2022-09-18T16:02:27.519Z,-23564.78
2022-09-18T16:04:32.920Z,-23562.88
2022-09-18T16:06:43.157Z,-23562.25
2022-09-18T16:08:52.239Z,-23561.78
2022-09-18T16:10:56.135Z,-23562.88
2022-09-18T16:12:58.776Z,-23561.94
2022-09-18T16:15:04.075Z,-23561.44
2022-09-18T16:17:36.742Z,-23563.66
2022-09-18T16:19:44.446Z,-23560.97
2022-09-18T16:21:47.228Z,-23558.28
2022-09-18T16:23:53.166Z,-23560.03
2022-09-18T16:26:06.417Z,-23561.44
2022-09-18T16:28:22.368Z,-23558.13
2022-09-18T16:30:25.443Z,-23557.66
2022-09-18T16:32:28.040Z,-23559.88
2022-09-18T16:34:33.174Z,-23562.25
2022-09-18T16:36:38.206Z,-23556.53
2022-09-18T16:38:40.828Z,-23560.34
2022-09-18T16:40:44.231Z,-23559.56
2022-09-18T16:42:46.827Z,-23560.66
2022-09-18T16:44:52.128Z,-23558.13
2022-09-18T16:46:57.126Z,-23556.06
2022-09-18T16:49:01.921Z,-23559.06
2022-09-18T16:51:06.017Z,-23560.50
2022-09-18T16:53:09.301Z,-23555.91
2022-09-18T16:55:12.252Z,-23557.50
2022-09-18T16:57:18.218Z,-23557.50
2022-09-18T16:59:22.777Z,-23554.03
2022-09-18T17:01:25.573Z,-23555.28
2022-09-18T17:03:28.850Z,-23551.97
2022-09-18T17:05:31.511Z,-23554.34
2022-09-18T17:07:35.992Z,-23551.81
2022-09-18T17:09:38.927Z,-23552.59
2022-09-18T17:11:41.806Z,-23553.06
2022-09-18T17:13:45.090Z,-23559.41
2022-09-18T17:15:48.485Z,-23552.28
2022-09-18T17:17:52.283Z,-23549.91
2022-09-18T17:19:55.829Z,-23549.28
2022-09-18T17:21:58.617Z,-23548.63
2022-09-18T17:24:03.631Z,-23547.06
2022-09-18T17:26:08.861Z,-23550.22
2022-09-18T17:28:12.342Z,-23546.09
2022-09-18T17:30:15.721Z,-23545.78
2022-09-18T17:32:18.617Z,-23545.31
2022-09-18T17:34:22.041Z,-23544.84
2022-09-18T17:36:25.169Z,-23545.78
2022-09-18T17:38:27.850Z,-23544.69
2022-09-18T17:40:31.956Z,-23543.56
2022-09-18T17:42:34.647Z,-23546.59
2022-09-18T17:44:37.338Z,-23544.22
2022-09-18T17:46:40.164Z,-23545.16
2022-09-18T17:48:42.997Z,-23543.56
2022-09-18T17:50:45.641Z,-23545.16
2022-09-18T17:52:48.355Z,-23546.44
2022-09-18T17:54:51.087Z,-23547.38
2022-09-18T17:56:55.659Z,-23544.84
2022-09-18T17:59:00.166Z,-23549.28
2022-09-18T18:01:10.223Z,-23550.22
2022-09-18T18:03:13.019Z,-23549.28
2022-09-18T18:05:16.836Z,-23550.22
2022-09-18T18:07:19.464Z,-23546.75
2022-09-18T18:09:22.576Z,-23546.75
2022-09-18T18:11:26.217Z,-23545.94
2022-09-18T18:13:30.245Z,-23548.31
2022-09-18T18:15:32.874Z,-23549.91
2022-09-18T18:17:35.917Z,-23549.59
2022-09-18T18:19:38.655Z,-23546.25
2022-09-18T18:21:43.380Z,-23547.06
2022-09-18T18:23:46.216Z,-23548.00
2022-09-18T18:25:48.859Z,-23547.38
2022-09-18T18:27:53.957Z,-23547.69
2022-09-18T18:29:59.054Z,-23548.16
2022-09-18T18:32:01.829Z,-23549.59
2022-09-18T18:34:05.416Z,-23549.59
2022-09-18T18:36:09.543Z,-23548.63
2022-09-18T18:38:12.387Z,-23548.63
2022-09-18T18:40:15.539Z,-23549.28
2022-09-18T18:42:19.657Z,-23547.69
2022-09-18T18:44:23.168Z,-23547.69
2022-09-18T18:46:28.638Z,-23547.53
2022-09-18T18:48:32.265Z,-23548.00
2022-09-18T18:50:34.909Z,-23545.00
2022-09-18T18:52:37.571Z,-23546.91
2022-09-18T18:54:40.550Z,-23545.78
2022-09-18T18:56:43.282Z,-23545.47
2022-09-18T18:58:45.880Z,-23544.84
2022-09-18T19:00:48.598Z,-23546.09
2022-09-18T19:02:52.666Z,-23545.00
2022-09-18T19:05:02.103Z,-23543.56
2022-09-18T19:07:05.967Z,-23546.44
2022-09-18T19:09:10.531Z,-23544.53
2022-09-18T19:11:15.152Z,-23544.84
2022-09-18T19:13:17.781Z,-23544.53
2022-09-18T19:15:20.434Z,-23544.69
2022-09-18T19:17:23.038Z,-23545.00
2022-09-18T19:19:29.190Z,-23543.88
2022-09-18T19:21:31.817Z,-23547.22
2022-09-18T19:23:35.386Z,-23545.16
2022-09-18T19:25:38.763Z,-23546.75
2022-09-18T19:27:42.131Z,-23548.00
2022-09-18T19:29:44.733Z,-23547.69
2022-09-18T19:31:48.430Z,-23547.69
2022-09-18T19:33:52.473Z,-23551.16
2022-09-18T19:35:56.662Z,-23550.84
2022-09-18T19:37:59.320Z,-23550.69
2022-09-18T19:40:02.114Z,-23548.97
2022-09-18T19:42:12.163Z,-23547.38
2022-09-18T19:44:20.079Z,-23548.63
2022-09-18T19:46:25.360Z,-23546.44
2022-09-18T19:48:28.838Z,-23546.91
2022-09-18T19:50:33.868Z,-23545.78
2022-09-18T19:52:37.907Z,-23550.06
2022-09-18T19:54:40.586Z,-23547.84
2022-09-18T19:56:47.865Z,-23551.47
2022-09-18T19:58:51.130Z,-23549.28
2022-09-18T20:00:53.871Z,-23551.16
2022-09-18T20:02:58.743Z,-23548.47
2022-09-18T20:05:01.920Z,-23546.91
2022-09-18T20:07:05.031Z,-23546.09
2022-09-18T20:09:09.531Z,-23545.78
2022-09-18T20:11:12.206Z,-23541.53
2022-09-18T20:13:14.878Z,-23536.78
2022-09-18T20:15:17.606Z,-23533.28
2022-09-18T20:17:20.268Z,-23528.38
2022-09-18T20:19:24.234Z,-23524.56
2022-09-18T20:21:26.911Z,-23522.53
2022-09-18T20:23:29.527Z,-23519.81
2022-09-18T20:25:33.598Z,-23517.13
2022-09-18T20:27:37.902Z,-23516.03
2022-09-18T20:29:40.666Z,-23512.53
2022-09-18T20:31:43.482Z,-23509.84
2022-09-18T20:33:46.259Z,-23510.50
2022-09-18T20:35:55.592Z,-23507.00
2022-09-18T20:38:03.133Z,-23506.69
2022-09-18T20:40:10.227Z,-23507.16
2022-09-18T20:42:14.224Z,-23504.47
2022-09-18T20:44:17.353Z,-23501.78
2022-09-18T20:46:20.941Z,-23498.59
2022-09-18T20:48:27.060Z,-23499.88
2022-09-18T20:50:29.682Z,-23492.91
2022-09-18T20:52:36.199Z,-23491.31
2022-09-18T20:54:39.518Z,-23493.22
2022-09-18T20:56:44.278Z,-23493.22
2022-09-18T20:58:51.255Z,-23489.09
2022-09-18T21:00:55.194Z,-23487.19
2022-09-18T21:02:57.900Z,-23485.59
2022-09-18T21:05:00.527Z,-23485.75
2022-09-18T21:07:03.723Z,-23486.88
2022-09-18T21:09:08.344Z,-23483.84
2022-09-18T21:11:11.398Z,-23484.66
2022-09-18T21:13:15.858Z,-23484.66
2022-09-18T21:15:19.893Z,-23483.84
2022-09-18T21:17:22.534Z,-23486.41
2022-09-18T21:19:26.019Z,-23484.66
2022-09-18T21:21:31.292Z,-23485.75
2022-09-18T21:23:51.816Z,-23488.47
2022-09-18T21:25:54.675Z,-23485.91
2022-09-18T21:27:57.313Z,-23488.16
2022-09-18T21:29:59.910Z,-23488.47
2022-09-18T21:32:04.019Z,-23488.16
2022-09-18T21:34:06.650Z,-23490.69
2022-09-18T21:36:09.708Z,-23491.47
2022-09-18T21:38:13.030Z,-23485.28
2022-09-18T21:40:15.969Z,-23483.53
2022-09-18T21:42:18.632Z,-23481.47
2022-09-18T21:44:24.642Z,-23486.25
2022-09-18T21:46:27.421Z,-23481.47
2022-09-18T21:48:31.752Z,-23482.13
2022-09-18T21:50:35.686Z,-23483.53
2022-09-18T21:52:39.128Z,-23480.69
2022-09-18T21:54:41.837Z,-23480.22
2022-09-18T21:56:45.591Z,-23478.78
2022-09-18T21:58:48.709Z,-23479.44
2022-09-18T22:00:51.407Z,-23476.09
2022-09-18T22:02:54.698Z,-23474.81
2022-09-18T22:05:01.036Z,-23471.81
2022-09-18T22:07:03.939Z,-23472.44
2022-09-18T22:09:09.498Z,-23471.81
2022-09-18T22:11:12.064Z,-23473.25
2022-09-18T22:13:14.677Z,-23474.81
2022-09-18T22:15:17.522Z,-23472.59
2022-09-18T22:17:20.164Z,-23472.44
2022-09-18T22:19:23.122Z,-23472.28
2022-09-18T22:21:29.053Z,-23473.88
2022-09-18T22:23:31.605Z,-23470.69
2022-09-18T22:25:34.581Z,-23470.69
2022-09-18T22:27:37.645Z,-23470.06
2022-09-18T22:29:41.091Z,-23470.88
2022-09-18T22:31:46.367Z,-23471.66
2022-09-18T22:33:49.951Z,-23471.03
2022-09-18T22:35:52.600Z,-23470.22
2022-09-18T22:37:56.630Z,-23471.03
2022-09-18T22:39:59.284Z,-23473.09
2022-09-18T22:42:02.463Z,-23475.94
2022-09-18T22:44:07.248Z,-23474.50
2022-09-18T22:46:11.922Z,-23471.81
2022-09-18T22:48:14.631Z,-23471.97
2022-09-18T22:50:17.280Z,-23471.03
2022-09-18T22:52:19.993Z,-23471.19
2022-09-18T22:54:26.285Z,-23470.22
2022-09-18T22:56:29.643Z,-23471.97
2022-09-18T22:58:32.931Z,-23471.97
2022-09-18T23:00:35.691Z,-23470.53
2022-09-18T23:02:38.851Z,-23468.16
2022-09-18T23:04:41.649Z,-23467.84
2022-09-18T23:06:44.451Z,-23465.31
2022-09-18T23:08:47.793Z,-23466.25
2022-09-18T23:10:51.776Z,-23464.53
2022-09-18T23:12:54.375Z,-23464.19
2022-09-18T23:14:57.027Z,-23458.19
2022-09-18T23:17:00.560Z,-23449.44
2022-09-18T23:19:05.403Z,-23453.91
2022-09-18T23:21:11.318Z,-23457.38
2022-09-18T23:23:13.922Z,-23444.06
2022-09-18T23:25:16.545Z,-23440.88
2022-09-18T23:27:20.497Z,-23439.94
2022-09-18T23:29:24.896Z,-23436.13
2022-09-18T23:31:29.958Z,-23441.53
2022-09-18T23:33:32.808Z,-23439.13
2022-09-18T23:35:35.411Z,-23439.28
2022-09-18T23:37:38.040Z,-23438.34
2022-09-18T23:39:40.622Z,-23431.69
2022-09-18T23:41:43.830Z,-23435.81
2022-09-18T23:43:49.132Z,-23430.72
2022-09-18T23:45:51.723Z,-23426.28
2022-09-18T23:47:54.308Z,-23426.44
2022-09-18T23:49:56.866Z,-23427.72
2022-09-18T23:52:00.753Z,-23421.34
2022-09-18T23:54:05.071Z,-23418.19
2022-09-18T23:56:10.174Z,-23416.75
2022-09-18T23:58:13.060Z,-23421.50
